Latest Weather Observations for Ceduna

IDS60801

Issued at 3:05 pm CDT Friday 21 November 2014 (issued every 30 minutes, with the page automatically refreshed every 10 minutes)

About weather observations | Map of weather stations | Latest weather observations for SA | Other Formats
Station Details ID: 018012 Name: CEDUNA AMO Lat: -32.13 Lon: 133.70 Height: 15.3 m
Data from the previous 72 hours. | See also: Recent months at Ceduna
Date/Time
CDT
Temp
°C
App
Temp
°C
Dew
Point
Rel
Hum
%
Delta-T
°C
Wind Press
QNH
hPa
Press
MSL
hPa
Rain
since 9 am
mm
Dir
 
Spd
km/h
Gust
km/h
Spd
kts
Gust
kts
21/03:00pm 34.1 27.3 -9.0 6 18.3 N 20 30 11 16 1008.0 1007.9 -
21/02:30pm 33.7 26.7 -7.7 6 17.9 N 22 33 12 18 1008.5 1008.4 -
21/02:00pm 33.2 25.9 -6.3 7 17.4 N 24 35 13 19 1009.1 1009.0 -
21/01:30pm 32.1 25.3 -5.3 8 16.6 NNE 22 32 12 17 1009.7 1009.6 -
21/01:00pm 31.3 25.4 -2.3 11 15.6 NNE 19 32 10 17 1010.1 1010.0 -
21/12:30pm 30.3 25.0 -0.9 13 14.7 NNE 17 30 9 16 - 1012.3 -
21/12:00pm 29.3 23.5 0.2 15 13.9 NE 20 28 11 15 1011.1 1011.0 -
21/11:30am 28.5 23.7 2.7 19 12.8 NNE 17 22 9 12 1011.5 1011.4 0.0
21/11:00am 27.1 22.3 4.4 23 11.5 NNE 19 26 10 14 1011.8 1011.7 0.2
21/10:30am 25.4 21.2 5.7 28 10.1 NE 17 22 9 12 1012.2 1012.1 0.2
21/10:00am 23.5 20.1 9.0 39 7.8 NE 17 24 9 13 1012.5 1012.4 0.0
21/09:30am 21.5 18.8 10.3 49 6.1 NE 15 22 8 12 1012.8 1012.7 0.0
21/09:00am 18.7 15.9 12.6 67 3.4 NE 19 22 10 12 1013.0 1012.9 0.0
21/08:30am 16.6 14.9 13.6 82 1.7 NE 15 22 8 12 1013.0 1012.9 0.0
21/08:00am 14.2 12.3 13.1 93 0.6 NE 15 19 8 10 1013.0 1012.9 0.0
21/07:30am 12.2 11.0 11.6 96 0.3 ENE 9 13 5 7 1013.0 1012.9 0.0
21/07:00am 10.0 7.8 9.4 96 0.3 E 11 13 6 7 1012.9 1012.8 0.0
21/06:30am 9.4 7.4 8.8 96 0.3 ENE 9 13 5 7 1012.6 1012.5 0.0
21/06:00am 10.7 8.0 10.3 97 0.2 NE 15 17 8 9 1012.2 1012.1 0.0
21/05:30am 10.7 7.2 10.1 96 0.3 NE 19 20 10 11 1012.3 1012.2 0.0
21/05:00am 9.0 7.3 8.4 96 0.3 ENE 7 9 4 5 1012.8 1012.7 0.0
21/04:56am 9.2 7.2 8.8 97 0.2 ENE 9 13 5 7 1012.7 1012.6 0.0
21/04:30am 9.9 8.4 9.1 95 0.4 NE 7 9 4 5 1012.8 1012.7 0.0
21/04:24am 10.6 9.5 10.0 96 0.3 NE 6 7 3 4 1012.8 1012.7 0.0
21/04:00am 10.9 8.9 10.3 96 0.3 NE 11 13 6 7 1012.6 1012.5 0.0
21/03:30am 11.2 9.7 10.4 95 0.4 NNE 9 13 5 7 1012.6 1012.5 0.0
21/03:00am 11.7 11.2 10.7 94 0.5 NE 4 7 2 4 1012.7 1012.6 0.0
21/02:30am 12.4 10.8 11.5 94 0.5 NE 11 13 6 7 1013.1 1013.0 0.0
21/02:00am 13.0 11.8 11.5 91 0.8 NE 9 9 5 5 1013.8 1013.7 0.0
21/01:30am 15.3 15.0 12.8 85 1.4 S 6 7 3 4 1014.1 1014.1 0.0
21/01:00am 14.7 13.5 12.7 88 1.1 S 11 13 6 7 1014.3 1014.3 0.0
21/12:30am 12.9 11.7 11.6 92 0.7 S 9 9 5 5 1014.3 1014.3 0.0
21/12:00am 12.1 10.6 10.4 89 0.9 S 9 11 5 6 1014.3 1014.3 0.0
 
Date/Time
CDT
Temp
°C
App
Temp
°C
Dew
Point
Rel
Hum
%
Delta-T
°C
Wind Press
QNH
hPa
Press
MSL
hPa
Rain
since 9 am
mm
Dir
 
Spd
km/h
Gust
km/h
Spd
kts
Gust
kts
20/11:30pm 14.2 14.3 12.7 91 0.8 S 4 6 2 3 1014.4 1014.4 0.0
20/11:00pm 14.7 13.8 12.5 87 1.2 S 9 13 5 7 1014.1 1014.1 0.0
20/10:30pm 15.1 13.9 12.7 85 1.3 S 11 13 6 7 1013.8 1013.7 0.0
20/10:00pm 15.4 14.6 12.9 85 1.4 S 9 11 5 6 1013.3 1013.2 0.0
20/09:30pm 16.0 14.9 13.1 83 1.6 S 11 13 6 7 1013.0 1012.9 0.0
20/09:00pm 16.9 16.1 13.9 82 1.7 S 11 13 6 7 1013.0 1012.9 0.0
20/08:30pm 17.7 15.7 13.8 78 2.2 SSW 17 22 9 12 1012.8 1012.7 0.0
20/08:00pm 18.6 16.5 13.7 73 2.8 SSW 17 20 9 11 1012.6 1012.5 0.0
20/07:40pm 18.8 16.8 14.9 78 2.3 SW 19 24 10 13 1012.7 1012.6 0.0
20/07:30pm 18.8 16.7 14.7 77 2.4 SW 19 24 10 13 1012.7 1012.6 0.0
20/07:22pm 18.9 17.8 15.3 79 2.1 SSW 15 20 8 11 1012.6 1012.5 0.0
20/07:00pm 19.2 17.1 15.3 78 2.3 WSW 20 22 11 12 1012.5 1012.4 0.0
20/06:30pm 19.2 17.7 15.3 78 2.3 SW 17 22 9 12 1012.2 1012.1 0.0
20/05:58pm 18.9 17.0 15.1 78 2.2 WSW 19 24 10 13 1012.2 1012.1 0.0
20/05:46pm 18.8 16.4 15.4 80 2.0 SW 22 28 12 15 1012.2 1012.1 0.0
20/05:30pm 19.7 17.0 14.7 73 2.9 SW 22 30 12 16 1012.0 1011.9 0.0
20/05:00pm 20.8 17.7 14.5 67 3.7 WSW 24 32 13 17 1011.9 1011.8 0.0
20/04:30pm 21.0 18.0 14.7 67 3.7 WSW 24 30 13 16 1011.9 1011.8 0.0
20/04:00pm 21.5 18.7 15.3 68 3.7 WSW 24 32 13 17 1012.1 1012.0 0.0
20/03:30pm 21.2 18.6 14.9 67 3.7 WSW 22 30 12 16 1012.2 1012.1 0.0
20/03:22pm 20.8 17.9 15.2 70 3.3 SW 24 32 13 17 1012.1 1012.0 0.0
20/03:00pm 20.3 17.8 15.2 72 3.0 WSW 22 32 12 17 1012.5 1012.4 0.0
20/02:30pm 19.3 16.4 15.2 77 2.4 WSW 24 32 13 17 1012.5 1012.4 0.0
20/02:00pm 19.4 16.6 15.3 77 2.4 WSW 24 32 13 17 1012.6 1012.5 0.0
20/01:49pm 19.9 17.1 15.3 75 2.7 SW 24 32 13 17 1012.5 1012.4 0.0
20/01:30pm 20.4 17.3 15.5 73 2.9 SW 26 33 14 18 1012.4 1012.3 0.0
20/01:00pm 21.9 19.2 15.7 68 3.7 WSW 24 32 13 17 1012.6 1012.5 0.0
20/12:30pm 20.9 17.3 15.3 70 3.3 WSW 28 35 15 19 1012.9 1012.8 0.0
20/12:00pm 21.5 17.7 15.8 70 3.4 SW 30 41 16 22 1012.8 1012.7 0.0
20/11:30am 20.9 17.7 16.4 75 2.7 SW 28 33 15 18 1012.9 1012.8 0.0
20/11:02am 21.9 19.9 16.5 71 3.3 W 22 30 12 16 1012.5 1012.4 0.0
20/11:00am 21.6 19.5 16.3 72 3.2 W 22 30 12 16 1012.5 1012.4 0.0
20/10:38am 20.5 17.9 16.9 80 2.2 WSW 26 35 14 19 1012.3 1012.2 0.0
20/10:30am 20.9 19.2 17.3 80 2.2 WSW 22 30 12 16 1012.0 1011.9 0.0
20/10:00am 19.6 18.2 17.0 85 1.6 W 20 30 11 16 1011.7 1011.6 0.0
20/09:54am 19.6 18.2 17.0 85 1.6 W 20 28 11 15 1011.8 1011.7 0.0
20/09:30am 19.2 15.6 17.1 88 1.3 WSW 32 41 17 22 1011.7 1011.6 0.0
20/09:00am 19.4 17.9 17.6 89 1.1 SW 22 32 12 17 1010.5 1010.4 1.6
20/08:30am 19.8 17.8 17.5 86 1.4 W 24 33 13 18 1011.1 1011.0 1.6
20/08:02am 20.3 18.8 17.7 85 1.6 W 22 33 12 18 1011.0 1010.9 1.6
20/08:00am 20.4 19.2 17.6 84 1.7 W 20 33 11 18 1011.0 1010.9 1.6
20/07:30am 20.7 19.9 18.0 84 1.7 W 19 24 10 13 1011.0 1010.9 1.6
20/07:00am 21.1 20.9 18.4 84 1.7 NW 17 24 9 13 1010.5 1010.4 1.6
20/06:30am 21.1 20.7 18.0 82 1.9 NW 17 20 9 11 1010.3 1010.2 1.6
20/06:00am 21.2 21.8 17.8 81 2.1 NW 11 17 6 9 1009.7 1009.6 1.6
20/05:30am 21.6 22.7 17.9 79 2.3 NW 9 13 5 7 1009.4 1009.3 1.6
20/05:00am 21.2 22.7 18.0 82 2.0 NW 7 9 4 5 1009.0 1008.9 1.6
20/04:30am 21.7 23.1 17.8 78 2.4 NW 7 9 4 5 1009.3 1009.2 1.6
20/04:00am 21.7 21.2 17.7 78 2.5 W 17 24 9 13 1010.1 1010.0 1.6
20/03:30am 21.5 21.4 16.9 75 2.8 N 13 15 7 8 1008.9 1008.8 1.6
20/03:00am 21.2 19.6 16.4 74 2.9 NE 20 28 11 15 1008.5 1008.4 1.6
20/02:30am 21.2 19.4 16.9 76 2.6 N 22 26 12 14 1009.3 1009.2 1.6
20/02:00am 21.2 20.4 17.1 77 2.5 N 17 22 9 12 1010.1 1010.0 1.6
20/01:30am 20.9 18.3 17.8 82 1.9 NNE 28 33 15 18 1009.7 1009.6 1.6
20/01:00am 20.9 19.3 18.3 85 1.6 N 24 32 13 17 1011.0 1010.9 1.2
20/12:30am 21.4 20.8 18.4 83 1.9 NNW 19 26 10 14 1011.8 1011.7 0.8
20/12:00am 21.8 22.1 17.8 78 2.5 NNW 13 17 7 9 1012.1 1012.0 0.6
 
Date/Time
CDT
Temp
°C
App
Temp
°C
Dew
Point
Rel
Hum
%
Delta-T
°C
Wind Press
QNH
hPa
Press
MSL
hPa
Rain
since 9 am
mm
Dir
 
Spd
km/h
Gust
km/h
Spd
kts
Gust
kts
19/11:30pm 21.9 23.0 18.0 78 2.4 NW 9 13 5 7 1012.3 1012.2 0.4
19/11:00pm 22.7 24.0 17.5 72 3.2 W 7 11 4 6 1012.0 1011.9 0.0
19/10:30pm 22.7 23.1 17.2 71 3.4 WSW 11 15 6 8 1012.2 1012.1 0.0
19/10:00pm 22.9 22.8 16.9 69 3.7 W 13 19 7 10 1012.3 1012.2 0.0
19/09:30pm 23.2 23.6 17.2 69 3.7 SW 11 17 6 9 1011.7 1011.6 0.0
19/09:00pm 23.7 22.6 17.2 67 4.0 WSW 19 32 10 17 1010.7 1010.6 0.0
19/08:36pm 27.5 23.3 13.5 42 8.3 W 28 44 15 24 1010.3 1010.2 0.0
19/08:30pm 28.3 26.3 10.2 32 10.2 N 11 17 6 9 1008.5 1008.4 0.0
19/08:00pm 27.8 26.8 12.4 38 9.0 E 9 11 5 6 1006.3 1006.2 0.0
19/07:30pm 28.6 26.9 11.2 34 10.0 ESE 11 17 6 9 1005.8 1005.7 0.0
19/07:00pm 28.4 27.4 12.3 37 9.4 S 9 11 5 6 1005.6 1005.5 0.0
19/06:30pm 29.0 26.9 11.1 33 10.3 SSW 13 17 7 9 1005.4 1005.3 0.0
19/06:00pm 29.1 25.4 10.2 30 10.7 SW 20 24 11 13 1006.1 1006.0 0.0
19/05:30pm 30.7 25.2 9.1 26 12.1 WSW 28 39 15 21 1006.5 1006.4 0.0
19/05:26pm 31.0 24.4 7.7 23 12.8 WSW 32 41 17 22 1006.5 1006.4 0.0
19/05:00pm 36.1 31.0 4.2 14 17.0 WNW 20 32 11 17 1006.5 1006.4 0.0
19/04:30pm 37.9 32.1 0.1 9 19.1 NNE 20 32 11 17 1006.5 1006.4 0.0
19/04:00pm 39.0 33.1 1.4 9 19.5 N 22 33 12 18 1007.0 1006.9 0.0
19/03:30pm 37.4 29.9 1.4 10 18.5 N 30 39 16 21 1007.4 1007.3 0.0
19/03:00pm 38.1 31.2 2.8 11 18.6 NNW 28 39 15 21 1007.5 1007.4 0.0
19/02:30pm 37.4 28.8 -4.4 7 19.6 NNW 32 46 17 25 1008.0 1007.9 0.0
19/02:19pm 37.8 29.1 -4.7 6 19.8 N 32 52 17 28 1008.2 1008.1 0.0
19/02:00pm 37.3 29.0 -5.4 6 19.7 N 30 43 16 23 1008.6 1008.5 0.0
19/01:30pm 37.4 28.5 -5.1 6 19.7 NNW 33 44 18 24 1009.2 1009.1 0.0
19/01:17pm 36.9 27.3 -4.5 7 19.3 N 37 59 20 32 1009.5 1009.4 0.0
19/01:00pm 36.5 27.7 -4.7 7 19.1 N 33 48 18 26 1009.7 1009.6 0.0
19/12:40pm 36.7 27.6 -7.3 6 19.6 N 33 52 18 28 1009.9 1009.8 0.0
19/12:30pm 36.8 26.9 -7.6 5 19.7 N 37 50 20 27 1010.0 1009.9 0.0
19/12:00pm 35.9 25.5 -8.7 5 19.3 N 39 57 21 31 1010.6 1010.5 0.0
19/11:58am 36.8 26.8 -8.4 5 19.8 N 37 57 20 31 1010.6 1010.5 0.0
19/11:30am 35.1 25.6 -7.8 6 18.7 N 35 50 19 27 1011.3 1011.2 0.0
19/11:00am 33.9 22.7 -7.8 6 18.0 N 44 59 24 32 1011.8 1011.7 0.0
19/10:36am 33.3 23.0 -7.4 7 17.6 N 39 57 21 31 1012.0 1011.9 0.0
19/10:30am 33.0 22.8 -7.3 7 17.4 N 39 52 21 28 1012.2 1012.1 0.0
19/10:01am 31.7 20.7 -6.9 8 16.6 N 43 61 23 33 1012.4 1012.3 0.0
19/10:00am 31.7 21.1 -6.9 8 16.6 N 41 52 22 28 1012.4 1012.3 0.0
19/09:30am 29.7 20.3 -6.5 9 15.4 NNE 35 48 19 26 1012.7 1012.6 0.0
19/09:00am 27.9 19.1 -4.7 11 14.1 NNE 33 43 18 23 1013.0 1012.9 0.0
19/08:30am 26.0 16.8 -4.9 12 13.1 NNE 35 46 19 25 1013.0 1012.9 0.0
19/08:00am 24.1 15.9 -4.0 15 11.9 NE 30 39 16 21 1013.2 1013.1 0.0
19/07:30am 22.4 15.0 -3.9 17 11.0 NE 26 35 14 19 1013.3 1013.2 0.0
19/07:00am 19.1 13.2 -2.1 23 8.9 NE 19 24 10 13 1013.1 1013.0 0.0
19/06:30am 17.2 11.7 -1.8 27 7.9 NE 17 19 9 10 1012.9 1012.8 0.0
19/06:00am 16.3 10.6 -0.8 31 7.2 ENE 19 22 10 12 1012.8 1012.7 0.0
19/05:30am 16.3 10.7 -0.1 32 7.0 ENE 19 20 10 11 1012.9 1012.8 0.0
19/05:00am 15.9 10.8 0.6 35 6.6 NE 17 19 9 10 1012.9 1012.8 0.0
19/04:30am 16.4 10.7 0.8 34 6.8 ENE 20 24 11 13 1012.9 1012.8 0.0
19/04:00am 17.5 11.4 0.6 32 7.4 ENE 22 24 12 13 1012.8 1012.7 0.0
19/03:30am 17.6 12.2 1.1 33 7.3 ENE 19 22 10 12 1013.4 1013.3 0.0
19/03:00am 16.7 11.2 1.9 37 6.6 ENE 20 24 11 13 1014.0 1014.0 0.0
19/02:30am 17.7 12.1 1.3 33 7.3 ENE 20 24 11 13 1014.5 1014.5 0.0
19/02:00am 18.8 13.2 1.1 30 7.9 E 20 24 11 13 1015.0 1015.0 0.0
19/01:30am 18.5 13.6 2.0 33 7.5 E 17 20 9 11 1015.6 1015.6 0.0
19/01:00am 18.2 14.1 4.3 39 6.6 E 15 19 8 10 1016.2 1016.2 0.0
19/12:30am 18.2 14.4 5.7 44 6.1 E 15 19 8 10 1016.5 1016.5 0.0
19/12:00am 18.8 15.2 6.8 45 6.0 E 15 17 8 9 1016.9 1016.9 0.0
 
Date/Time
CDT
Temp
°C
App
Temp
°C
Dew
Point
Rel
Hum
%
Delta-T
°C
Wind Press
QNH
hPa
Press
MSL
hPa
Rain
since 9 am
mm
Dir
 
Spd
km/h
Gust
km/h
Spd
kts
Gust
kts
18/11:30pm 18.7 15.5 8.4 51 5.3 E 15 19 8 10 1017.0 1017.0 0.0
18/11:00pm 19.0 15.8 8.3 50 5.5 ESE 15 19 8 10 1017.2 1017.2 0.0
18/10:30pm 18.3 15.5 8.4 52 5.1 ESE 13 15 7 8 1017.2 1017.2 0.0
18/10:00pm 19.8 16.2 8.5 48 5.9 ESE 17 19 9 10 1017.4 1017.4 0.0
18/09:30pm 20.3 18.0 11.8 58 4.7 SE 15 17 8 9 1017.2 1017.2 0.0
18/09:00pm 21.4 17.8 10.4 49 6.0 SE 20 26 11 14 1017.2 1017.2 0.0
18/08:30pm 22.2 18.6 10.0 46 6.6 SSE 19 26 10 14 1017.3 1017.3 0.0
18/08:00pm 22.3 19.9 12.6 54 5.5 S 17 20 9 11 1017.1 1017.1 0.0
18/07:30pm 23.2 20.3 12.9 52 5.9 S 20 26 11 14 1016.9 1016.9 0.0
18/07:00pm 25.5 21.1 9.1 35 8.9 SSE 22 30 12 16 1016.6 1016.6 0.0
18/06:30pm 25.8 20.4 8.0 32 9.5 SSE 26 32 14 17 1016.5 1016.5 0.0
18/06:00pm 26.3 20.7 8.8 33 9.5 SSE 28 33 15 18 1016.5 1016.5 0.0
18/05:30pm 27.0 21.7 8.3 30 10.1 S 26 33 14 18 1016.7 1016.7 0.0
18/05:00pm 26.5 21.2 8.6 32 9.7 S 26 33 14 18 1016.9 1016.9 0.0
18/04:30pm 25.8 19.8 8.8 34 9.2 SSE 30 35 16 19 1017.1 1017.1 0.0
18/04:00pm 26.3 20.4 7.7 30 9.9 S 28 33 15 18 1017.4 1017.4 0.0
18/03:30pm 27.8 22.5 6.8 26 11.1 S 24 32 13 17 1018.0 1018.0 0.0

Other Formats:

Comma delimited format used in spreadsheet applications
http://www.bom.gov.au/fwo/IDS60801/IDS60801.94653.axf

JavaScript Object Notation format (JSON) in row-major order
http://www.bom.gov.au/fwo/IDS60801/IDS60801.94653.json